Webcam

2024/05/20 07:50 EBBR 200750Z 04003KT 360V070 9999 SCT010 16/13 Q1012 NOSIG

Webcam

--- Refresh now ---